EW2748 Weather Reports


Display with metric or nautical units.
time (UTC)temp
F
wind
direction
speed
MPH
gust
MPH
rain 1hr
in
rain 24hr
in
rain mn
in
humidity
%
barometer
mb
20210924211556 72 138 1.0 5.0 0.00 0.00 0.00 45 1018.2
20210924210101 72 159 0.0 3.0 0.00 0.00 0.00 43 1018.2
20210924204559 73 316 0.0 2.0 0.00 0.00 0.00 43 1018.2
20210924203037 74 347 0.0 3.0 0.00 0.00 0.00 43 1018.3
20210924201546 75 103 0.0 4.0 0.00 0.00 0.00 45 1018.4
20210924200024 74 15 1.0 6.0 0.00 0.00 0.00 46 1018.3
20210924194520 74 298 0.0 3.0 0.00 0.00 0.00 47 1018.5
20210924193036 74 96 1.0 7.0 0.00 0.00 0.00 46 1018.7
20210924191533 75 309 0.0 2.0 0.00 0.00 0.00 46 1018.9
20210924190003 74 105 1.0 4.0 0.00 0.00 0.00 46 1019.2
20210924184721 74 298 0.0 5.0 0.00 0.00 0.00 45 1019.5
20210924183112 74 295 0.0 4.0 0.00 0.00 0.00 48 1019.8
20210924181639 73 97 0.0 4.0 0.00 0.00 0.00 48 1020.0
20210924180147 72 150 2.0 5.0 0.00 0.00 0.00 47 1020.1
20210924174611 72 295 1.0 4.0 0.00 0.00 0.00 47 1020.4
20210924173044 72 94 3.0 4.0 0.00 0.00 0.00 46 1020.6
20210924171541 72 70 0.0 4.0 0.00 0.00 0.00 48 1020.8
20210924170026 71 48 1.0 4.0 0.00 0.00 0.00 48 1021.0
20210924164539 69 114 1.0 4.0 0.00 0.00 0.00 49 1021.1
20210924163020 69 122 0.0 6.0 0.00 0.00 0.00 52 1021.3
20210924161610 68 329 1.0 5.0 0.00 0.00 0.00 52 1021.4
20210924160021 67 126 1.0 5.0 0.00 0.00 0.00 53 1021.4
20210924154515 66 146 0.0 5.0 0.00 0.00 0.00 56 1021.6
20210924153101 66 283 1.0 4.0 0.00 0.00 0.00 56 1021.5
20210924151654 66 129 1.0 4.0 0.00 0.00 0.00 54 1021.6
20210924150116 64 121 2.0 3.0 0.00 0.00 0.00 62 1021.6
20210924144621 63 128 0.0 4.0 0.00 0.00 0.00 66 1021.5
20210924143124 61 129 0.0 2.0 0.00 0.00 0.00 68 1021.4
20210924141633 60 119 0.0 2.0 0.00 0.00 0.00 63 1021.3
20210924140059 58 134 0.0 2.0 0.00 0.00 0.00 42 1021.4
20210924134551 57 201 0.0 1.0 0.00 0.00 0.00 25 1021.3
20210924133034 56 201 0.0 1.0 0.00 0.00 0.00 6 1021.2
20210924131533 54 332 0.0 0.0 0.00 0.00 0.00 100 1021.2
20210924130021 52 331 0.0 0.0 0.00 0.00 0.00 100 1021.2
20210924124518 51 331 0.0 0.0 0.00 0.00 0.00 100 1021.2
20210924123008 49 332 0.0 0.0 0.00 0.00 0.00 100 1021.0
20210924121503 49 332 0.0 1.0 0.00 0.00 0.00 100 1020.8
20210924120216 48 330 0.0 1.0 0.00 0.00 0.00 100 1020.8
20210924114653 48 330 0.0 1.0 0.00 0.00 0.00 100 1020.7
20210924113145 48 330 0.0 0.0 0.00 0.00 0.00 100 1020.5
20210924111551 48 330 0.0 0.0 0.00 0.00 0.00 100 1020.5
20210924110104 48 330 0.0 0.0 0.00 0.00 0.00 100 1020.3
20210924104554 48 330 0.0 0.0 0.00 0.00 0.00 100 1020.1
20210924103114 48 330 0.0 0.0 0.00 0.00 0.00 100 1020.0
20210924101539 48 330 0.0 0.0 0.00 0.00 0.00 100 1019.9
20210924100025 48 330 0.0 0.0 0.00 0.00 0.00 100 1019.8
20210924094554 49 330 0.0 0.0 0.00 0.00 0.00 100 1019.6
20210924093018 49 330 0.0 0.0 0.00 0.00 0.00 100 1019.4
20210924083106 50 330 0.0 0.0 0.00 0.00 0.00 100 1019.3
20210924081630 50 330 0.0 0.0 0.00 0.00 0.00 100 1019.0
20210924080105 50 330 0.0 0.0 0.00 0.00 0.00 100 1019.1
20210924074605 50 330 0.0 0.0 0.00 0.00 0.00 100 1019.1
20210924073054 50 332 0.0 0.0 0.00 0.00 0.00 100 1019.1
20210924071612 50 330 0.0 0.0 0.00 0.00 0.00 100 1019.1
20210924070100 50 331 0.0 0.0 0.00 0.00 0.00 100 1019.0
20210924064525 51 330 0.0 0.0 0.00 0.00 0.00 100 1019.0
20210924063027 51 330 0.0 0.0 0.00 0.00 0.00 100 1019.0
20210924061522 51 330 0.0 0.0 0.00 0.00 0.00 100 1019.0
20210924060014 51 330 0.0 0.0 0.00 0.00 0.00 100 1019.2
20210924054511 52 330 0.0 0.0 0.00 0.00 0.00 100 1019.2
20210924053003 52 330 0.0 0.0 0.00 0.00 0.00 100 1019.3
20210924051705 52 331 0.0 0.0 0.00 0.00 0.00 3 1019.5
20210924050058 52 330 0.0 0.0 0.00 0.00 0.00 5 1019.5
20210924044659 53 330 0.0 1.0 0.00 0.00 0.00 9 1019.6
20210924043143 53 332 0.0 0.0 0.00 0.00 0.00 13 1019.4
20210924041725 53 331 0.0 0.0 0.00 0.00 0.00 17 1019.4
20210924040100 53 330 0.0 0.0 0.00 0.00 0.00 23 1019.2
20210924034540 54 332 0.0 0.0 0.00 0.00 0.00 23 1019.0
20210924033042 54 331 0.0 0.0 0.00 0.00 0.00 18 1019.0
20210924031603 54 332 0.0 0.0 0.00 0.00 0.00 22 1018.9
20210924030100 55 330 0.0 0.0 0.00 0.00 0.00 15 1018.7
20210924024512 55 331 0.0 0.0 0.00 0.00 0.00 27 1018.6
20210924023029 55 331 0.0 0.0 0.00 0.00 0.00 23 1018.4
20210924021503 55 331 0.0 0.0 0.00 0.00 0.00 22 1018.5
20210924020242 56 332 0.0 0.0 0.00 0.00 0.00 22 1018.5
20210924014620 56 332 0.0 0.0 0.00 0.00 0.00 29 1018.4
20210924013054 56 332 0.0 0.0 0.00 0.00 0.00 36 1018.3
20210924011549 57 331 0.0 0.0 0.00 0.00 0.00 42 1018.2
20210924010045 57 332 0.0 0.0 0.00 0.00 0.00 51 1017.9
20210924004558 58 332 0.0 0.0 0.00 0.00 0.00 61 1017.8
20210924003101 59 332 0.0 0.0 0.00 0.00 0.00 62 1017.7
20210924001543 60 331 0.0 0.0 0.00 0.00 0.00 65 1017.5
20210924000053 61 331 0.0 0.0 0.00 0.00 0.00 66 1017.5
20210923234537 63 332 0.0 0.0 0.00 0.00 0.00 66 1017.4
20210923233044 64 332 0.0 0.0 0.00 0.00 0.00 61 1017.4
20210923231526 66 331 0.0 1.0 0.00 0.00 0.00 55 1017.3
20210923230041 67 314 0.0 4.0 0.00 0.00 0.00 52 1017.2
20210923224523 68 300 0.0 5.0 0.00 0.00 0.00 50 1017.2
20210923223013 68 291 0.0 4.0 0.00 0.00 0.00 49 1017.1
20210923221508 69 307 1.0 4.0 0.00 0.00 0.00 44 1017.0
20210923220024 69 82 1.0 5.0 0.00 0.00 0.00 44 1016.9
20210923214850 69 312 3.0 7.0 0.00 0.00 0.00 44 1016.9
20210923213115 69 294 1.0 5.0 0.00 0.00 0.00 49 1016.8